Airfield :
LOGIN :

Register | Disclaimer

   EN    FR    IT 

 










Legend :    VFR   Marginal VFR   IFR   Intensive IFR   Very Intensive IFR
Visi :
Ceiling :
>= 8 km
>= 3000ft
5 to 8 km
1000 to 3000 ft
1500m to 5 km
500 to 1000 ft
800 to 1500m
200 to 500 ft
< 800m
< 200 ft
Symbols :   Thunderstorms  Fog  Heavy snow  Heavy precipitations  Wind > 20 kt
SIGMETs :     Misc.  Thunderstorms  Icing  Turbulence  Mountain Waves  Volcanic Ashes







- Airport Elevation : 202 ft
- IATA code : LGW
- Download approach charts


EGKK - London Gatwick

CURRENT METAR :
  • 222320Z 21004KT 170V250 CAVOK 16/13 Q1015

EXPIRED METARs :
  • 222250Z 25005KT CAVOK 16/13 Q1015
  • 222220Z 24005KT CAVOK 17/13 Q1015
  • 222150Z 24004KT CAVOK 17/13 Q1015
  • 222120Z 22004KT CAVOK 18/13 Q1014
  • 222050Z 23004KT CAVOK 18/13 Q1014

TAF TAF EGKK
Valid from the 23 at 00:00 until the 24 at 06:00 UTC


222255Z 2300/2406 24010KT 9999 SCT020
TEMPO 2400/2406 7000 -RA BKN012
No reported NOTAMs for that airfield.



MET'MAP, your aeronautical weather chart ! - Copyright ORBIFLY December 2007 - Disclaimer

ORBIFLY MET'MAP TEAM :

Programming & Development : Alexandra Zaïnal
Concept & Development : Baudouin d'Aumeries
Co-Development & Prog : Marc-Olivier Méhu
Technical & hardware support : Manuel Goepfert

Contact : metmap@orbifly.com




SOURCES & CREDITS :

   NOAA